59NC weather

Public forecast

Using degrees Fahrenheit for public forecast. Weather courtesy of forecast.io.

Closest aviation weather report (METAR) to Mclean Brothers Airport

Closest report is Burlington Alamance Regional Airport, 4.9 nm (9.0 km) SE. Retrieved 2020/08/15 03:54 UTC (19 minutes ago):

KBUY 150354Z AUTO 06004KT 10SM SCT009 BKN022 25/22 A2996 RMK AO2 SLP138 T02500222

Closest aviation forecast (TAF) to Mclean Brothers Airport

Closest forecast is Piedmont Triad International Airport, 18.5 nm (34.3 km) W. Retrieved 2020-08-15 00:42 UTC (4 hours ago):

TAF KGSO 142339Z 1500/1524 VRB06KT P6SM VCTS BKN035CB TEMPO 1500/1502 1SM TSRA BKN020CB FM150300 05002KT P6SM -SHRA OVC035 FM150700 08003KT 5SM BR VCSH SCT004 OVC015 FM150900 06003KT 4SM BR VCSH OVC004 FM151500 06004KT 6SM BR SCT004 SCT008 OVC015 FM151800 05006KT 6SM BR VCTS SCT015 BKN035CB TEMPO 1520/1524 2SM -TSRA BKN015CB